Time;durP1;ratioP1;P1;durP2;ratioP2;P2;SDS_P1;SDS_P2;PMS_P1;PMS_P2;Temp;Humidity;BMP_temperature;BMP_pressure;BME280_temperature;BME280_humidity;BME280_pressure;Samples;Min_cycle;Max_cycle;Signal;HPM_P1;HPM_P2
2022/07/04 00:00:25;;;;;;;0.13;0.13;;;21.80;83.80;;;;;;4992478;28;20023;-74
2022/07/04 00:02:51;;;;;;;0.10;0.10;;;21.80;83.80;;;;;;4992693;28;20553;-74
2022/07/04 00:05:18;;;;;;;0.10;0.10;;;21.90;84.10;;;;;;4977416;28;20485;-75
2022/07/04 00:07:46;;;;;;;0.20;0.20;;;22.10;83.40;;;;;;4996493;28;20026;-74
2022/07/04 00:10:15;;;;;;;0.00;0.00;;;22.30;82.40;;;;;;4995032;28;20042;-75
2022/07/04 00:12:42;;;;;;;0.20;0.20;;;22.40;81.90;;;;;;4996710;28;20097;-75
2022/07/04 00:15:09;;;;;;;0.08;0.08;;;22.50;81.60;;;;;;4995186;28;20026;-75
2022/07/04 00:17:35;;;;;;;0.80;0.80;;;22.50;81.40;;;;;;4996428;28;20022;-75
2022/07/04 00:20:02;;;;;;;0.10;0.10;;;22.60;84.30;;;;;;4994917;28;20054;-74
2022/07/04 00:22:28;;;;;;;0.10;0.10;;;22.50;88.40;;;;;;4996432;28;20045;-74
2022/07/04 00:24:54;;;;;;;0.30;0.30;;;22.20;90.50;;;;;;4995145;28;20026;-74
2022/07/04 00:27:20;;;;;;;7.95;1.38;;;22.00;92.00;;;;;;4996316;28;20027;-74
2022/07/04 00:29:45;;;;;;;0.10;0.10;;;21.80;93.80;;;;;;4994633;28;20077;-74
2022/07/04 00:32:11;;;;;;;0.17;0.17;;;21.40;96.70;;;;;;4996142;28;20023;-74
2022/07/04 00:34:37;;;;;;;1.75;0.75;;;21.30;99.90;;;;;;4996212;28;20386;-74
2022/07/04 00:37:03;;;;;;;0.10;0.10;;;21.20;99.90;;;;;;4996081;28;20026;-74
2022/07/04 00:39:29;;;;;;;0.10;0.10;;;21.10;99.90;;;;;;4994702;28;20038;-74
2022/07/04 00:41:55;;;;;;;0.40;0.40;;;21.00;99.90;;;;;;4996037;28;20406;-74
2022/07/04 00:44:20;;;;;;;0.10;0.10;;;20.90;99.90;;;;;;4994818;28;20026;-74
2022/07/04 00:46:47;;;;;;;0.85;0.85;;;20.70;99.90;;;;;;4995789;28;20089;-74
2022/07/04 00:49:15;;;;;;;0.55;0.45;;;20.60;99.90;;;;;;4995565;28;20471;-74
2022/07/04 00:51:42;;;;;;;0.20;0.20;;;20.40;99.90;;;;;;4995860;28;20049;-74
2022/07/04 00:54:11;;;;;;;0.47;0.40;;;20.30;99.90;;;;;;4996203;28;20113;-74
2022/07/04 00:56:39;;;;;;;1.45;1.35;;;20.30;99.90;;;;;;4994604;28;20023;-74
2022/07/04 00:59:05;;;;;;;1.77;0.65;;;20.30;99.90;;;;;;4995437;28;20073;-74
2022/07/04 01:01:32;;;;;;;1.02;0.80;;;20.30;99.90;;;;;;4994362;28;20084;-75
2022/07/04 01:03:58;;;;;;;1.17;1.08;;;20.30;99.90;;;;;;4994438;28;20467;-75
2022/07/04 01:06:24;;;;;;;0.35;0.35;;;20.40;99.90;;;;;;4994348;28;20026;-75
2022/07/04 01:08:50;;;;;;;0.52;0.52;;;20.40;99.90;;;;;;4995218;28;20014;-74
2022/07/04 01:11:16;;;;;;;0.10;0.10;;;20.50;99.90;;;;;;4995397;28;20026;-74
2022/07/04 01:13:43;;;;;;;0.00;0.00;;;20.60;99.90;;;;;;4994152;28;20061;-74
2022/07/04 01:16:12;;;;;;;0.20;0.17;;;20.70;99.90;;;;;;4994918;28;20057;-74
2022/07/04 01:18:39;;;;;;;0.90;0.77;;;20.80;99.90;;;;;;4994115;28;20105;-74
2022/07/04 01:21:06;;;;;;;0.85;0.57;;;20.80;99.90;;;;;;4993919;28;20038;-74
2022/07/04 01:23:31;;;;;;;0.20;0.20;;;20.80;99.90;;;;;;4993949;28;20026;-74
2022/07/04 01:25:59;;;;;;;0.10;0.10;;;20.80;99.90;;;;;;4995207;28;20045;-74
2022/07/04 01:28:25;;;;;;;0.10;0.10;;;20.90;99.90;;;;;;4995114;28;20046;-74
2022/07/04 01:30:52;;;;;;;0.93;0.55;;;20.90;99.90;;;;;;4993712;28;20061;-74
2022/07/04 01:33:17;;;;;;;0.55;0.55;;;20.80;99.90;;;;;;4995107;28;20018;-74
2022/07/04 01:35:44;;;;;;;1.30;1.23;;;20.70;99.90;;;;;;4995108;28;20026;-74
2022/07/04 01:38:10;;;;;;;0.10;0.10;;;20.40;99.90;;;;;;4993777;28;20022;-74
2022/07/04 01:40:35;;;;;;;0.15;0.15;;;20.50;99.90;;;;;;4993491;28;20394;-74
2022/07/04 01:43:01;;;;;;;1.67;1.05;;;20.30;99.90;;;;;;4993770;28;20173;-74
2022/07/04 01:45:27;;;;;;;1.05;0.90;;;20.10;99.90;;;;;;4977328;28;20034;-74
2022/07/04 01:47:54;;;;;;;0.80;0.68;;;19.80;99.90;;;;;;4994850;28;20474;-74
2022/07/04 01:50:20;;;;;;;1.05;0.85;;;19.80;99.90;;;;;;4994488;28;20117;-74
2022/07/04 01:52:45;;;;;;;0.43;0.40;;;19.70;99.90;;;;;;4993488;28;20502;-74
2022/07/04 01:55:12;;;;;;;0.70;0.70;;;19.60;99.90;;;;;;4993623;28;20386;-74
2022/07/04 01:57:38;;;;;;;4.47;1.55;;;19.60;99.90;;;;;;4994665;28;20022;-74
2022/07/04 02:02:54;;;;;;;0.00;0.00;;;19.60;99.90;;;;;;4993388;28;20048;-74
2022/07/04 02:05:22;;;;;;;0.00;0.00;;;19.70;99.90;;;;;;4994530;28;20437;-74
2022/07/04 02:07:48;;;;;;;0.10;0.10;;;19.90;99.90;;;;;;4993101;28;20030;-74
2022/07/04 02:10:14;;;;;;;0.00;0.00;;;20.00;99.90;;;;;;4994159;28;20030;-74
2022/07/04 02:15:25;;;;;;;0.17;0.17;;;20.20;99.90;;;;;;4993031;28;20031;-74
2022/07/04 02:17:51;;;;;;;0.40;0.40;;;20.00;99.90;;;;;;4993048;28;20109;-74
2022/07/04 02:20:16;;;;;;;0.00;0.00;;;20.00;99.90;;;;;;4993875;28;20033;-74
2022/07/04 02:22:42;;;;;;;0.10;0.10;;;20.10;99.90;;;;;;4994190;28;20030;-74
2022/07/04 02:25:08;;;;;;;0.10;0.10;;;20.10;99.90;;;;;;4994161;28;20027;-74
2022/07/04 02:27:34;;;;;;;0.35;0.35;;;20.00;99.90;;;;;;4993454;28;20054;-74
2022/07/04 02:30:00;;;;;;;0.10;0.10;;;19.80;99.90;;;;;;4992039;28;20490;-74
2022/07/04 02:32:25;;;;;;;0.05;0.05;;;19.80;99.90;;;;;;4976702;28;20026;-75
2022/07/04 02:34:51;;;;;;;0.00;0.00;;;19.90;99.90;;;;;;4992723;28;20157;-75
2022/07/04 02:37:17;;;;;;;0.32;0.32;;;20.00;99.90;;;;;;4993840;28;20050;-75
2022/07/04 02:39:43;;;;;;;0.10;0.10;;;20.00;99.90;;;;;;4993704;28;20038;-75
2022/07/04 02:42:09;;;;;;;0.10;0.10;;;20.10;99.90;;;;;;4994057;28;20054;-75
2022/07/04 02:44:34;;;;;;;0.30;0.30;;;20.20;99.90;;;;;;4994022;28;20474;-74
2022/07/04 02:47:00;;;;;;;0.05;0.05;;;20.20;99.90;;;;;;4993630;28;20100;-74
2022/07/04 02:49:26;;;;;;;0.10;0.10;;;20.10;99.90;;;;;;4991965;28;20129;-74
2022/07/04 02:51:52;;;;;;;0.10;0.10;;;20.00;99.90;;;;;;4992414;28;20027;-74
2022/07/04 02:54:18;;;;;;;1.27;1.20;;;19.90;99.90;;;;;;4993598;28;20037;-74
2022/07/04 02:56:44;;;;;;;0.10;0.10;;;19.90;99.90;;;;;;4992382;28;20045;-74
2022/07/04 02:59:09;;;;;;;0.10;0.10;;;19.80;99.90;;;;;;4991957;28;20026;-75
2022/07/04 03:01:35;;;;;;;0.10;0.10;;;19.80;99.90;;;;;;4993517;28;20026;-75
2022/07/04 03:04:02;;;;;;;0.10;0.10;;;19.90;99.90;;;;;;4993305;28;20054;-75
2022/07/04 03:06:28;;;;;;;0.10;0.10;;;20.10;99.90;;;;;;4975861;28;20027;-75
2022/07/04 03:08:54;;;;;;;0.10;0.10;;;20.30;99.90;;;;;;4992858;28;20076;-75
2022/07/04 03:11:20;;;;;;;0.10;0.10;;;20.40;99.90;;;;;;4991929;28;20474;-75
2022/07/04 03:13:46;;;;;;;0.00;0.00;;;20.60;99.90;;;;;;4993314;28;20026;-74
2022/07/04 03:16:11;;;;;;;0.05;0.05;;;20.60;99.90;;;;;;4992248;28;20026;-75
2022/07/04 03:18:37;;;;;;;0.05;0.05;;;20.50;99.90;;;;;;4992082;28;20037;-75
2022/07/04 03:21:04;;;;;;;0.10;0.10;;;20.40;99.90;;;;;;4993080;28;20034;-75
2022/07/04 03:23:31;;;;;;;0.10;0.10;;;20.40;99.90;;;;;;4993105;28;20034;-75
2022/07/04 03:25:57;;;;;;;0.00;0.00;;;20.60;99.90;;;;;;4993075;28;20085;-74
2022/07/04 03:28:23;;;;;;;0.05;0.05;;;20.60;99.90;;;;;;4991747;28;20092;-75
2022/07/04 03:30:48;;;;;;;0.03;0.03;;;20.70;99.90;;;;;;4991512;28;20030;-75
2022/07/04 03:33:14;;;;;;;0.10;0.10;;;20.70;99.90;;;;;;4991680;28;20026;-75
2022/07/04 03:35:40;;;;;;;0.00;0.00;;;20.60;99.90;;;;;;4993126;28;20022;-75
2022/07/04 03:38:06;;;;;;;0.03;0.03;;;20.60;99.90;;;;;;4992956;28;20478;-75
2022/07/04 03:40:32;;;;;;;0.00;0.00;;;20.70;99.90;;;;;;4974831;28;20077;-75
2022/07/04 03:42:59;;;;;;;0.00;0.00;;;20.70;99.90;;;;;;4991758;28;20034;-75
2022/07/04 03:47:56;;;;;;;0.10;0.10;;;20.70;99.90;;;;;;5029543;28;20536;-75
2022/07/04 03:50:22;;;;;;;0.10;0.10;;;20.80;99.90;;;;;;5001809;28;20037;-75
2022/07/04 03:52:48;;;;;;;0.10;0.10;;;20.90;99.90;;;;;;5011218;28;20473;-75
2022/07/04 03:55:14;;;;;;;0.03;0.03;;;21.00;99.90;;;;;;5011189;28;20049;-76
2022/07/04 03:57:40;;;;;;;0.10;0.10;;;20.90;99.90;;;;;;5011163;28;20044;-75
2022/07/04 04:00:07;;;;;;;0.17;0.15;;;20.80;99.90;;;;;;5012055;28;20105;-75
2022/07/04 04:02:33;;;;;;;0.03;0.03;;;20.40;99.90;;;;;;5011184;28;20033;-75
2022/07/04 04:07:43;;;;;;;0.10;0.10;;;19.80;99.90;;;;;;5011227;28;20030;-75
2022/07/04 04:10:10;;;;;;;0.10;0.10;;;19.80;99.90;;;;;;5011834;28;20507;-76
2022/07/04 04:12:36;;;;;;;0.10;0.10;;;19.80;99.90;;;;;;5011037;28;20111;-75
2022/07/04 04:15:02;;;;;;;0.00;0.00;;;19.60;99.90;;;;;;5011122;28;20022;-76
2022/07/04 04:17:28;;;;;;;0.10;0.10;;;19.60;99.90;;;;;;5012247;28;20030;-75
2022/07/04 04:19:54;;;;;;;0.20;0.20;;;19.60;99.90;;;;;;5011119;28;20028;-75
2022/07/04 04:22:19;;;;;;;0.10;0.10;;;19.70;99.90;;;;;;5011321;28;20029;-75
2022/07/04 04:24:45;;;;;;;0.05;0.05;;;19.50;99.90;;;;;;4994827;28;20058;-75
2022/07/04 04:27:11;;;;;;;0.10;0.10;;;19.50;99.90;;;;;;4994760;28;20397;-75
2022/07/04 04:29:37;;;;;;;0.03;0.03;;;19.60;99.90;;;;;;5011851;28;20045;-75
2022/07/04 04:32:03;;;;;;;0.08;0.08;;;19.70;99.90;;;;;;5011178;28;20022;-74
2022/07/04 04:34:28;;;;;;;0.00;0.00;;;19.80;99.90;;;;;;4994651;28;20085;-75
2022/07/04 04:36:54;;;;;;;0.00;0.00;;;19.80;99.90;;;;;;5012544;28;20023;-75
2022/07/04 04:39:20;;;;;;;0.28;0.28;;;19.80;99.90;;;;;;4994222;28;20116;-75
2022/07/04 04:41:46;;;;;;;0.03;0.03;;;20.10;99.90;;;;;;5012155;28;20114;-75
2022/07/04 04:44:11;;;;;;;0.10;0.10;;;20.20;99.90;;;;;;5012113;28;20022;-75
2022/07/04 04:46:37;;;;;;;0.35;0.15;;;20.20;99.90;;;;;;5011902;28;20036;-75
2022/07/04 04:49:03;;;;;;;0.03;0.03;;;20.20;99.90;;;;;;5011723;28;20022;-75
2022/07/04 04:51:28;;;;;;;0.00;0.00;;;20.10;99.90;;;;;;5012554;28;20606;-75
2022/07/04 04:53:54;;;;;;;0.10;0.10;;;20.10;99.90;;;;;;5015712;28;20018;-75
2022/07/04 04:56:20;;;;;;;0.10;0.10;;;20.30;99.90;;;;;;5015772;28;20050;-76
2022/07/04 04:58:46;;;;;;;0.20;0.20;;;20.30;99.90;;;;;;5015517;28;20026;-75
2022/07/04 05:01:12;;;;;;;0.10;0.10;;;20.30;99.90;;;;;;5015468;28;20104;-75
2022/07/04 05:03:38;;;;;;;0.20;0.20;;;20.20;99.90;;;;;;4998136;28;20022;-75
2022/07/04 05:06:04;;;;;;;0.10;0.10;;;20.30;99.90;;;;;;5015393;28;20030;-75
2022/07/04 05:08:30;;;;;;;0.10;0.10;;;20.30;99.90;;;;;;5014255;28;20405;-75
2022/07/04 05:10:55;;;;;;;0.10;0.10;;;20.40;99.90;;;;;;5013902;28;20497;-75
2022/07/04 05:13:21;;;;;;;0.10;0.10;;;20.20;99.90;;;;;;5014206;28;20029;-74
2022/07/04 05:15:47;;;;;;;0.40;0.40;;;20.30;99.90;;;;;;5010023;28;20431;-76
2022/07/04 05:18:13;;;;;;;0.22;0.22;;;20.30;99.90;;;;;;5007712;28;20048;-75
2022/07/04 05:20:39;;;;;;;0.35;0.17;;;20.40;99.90;;;;;;5014949;28;20344;-75
2022/07/04 05:23:06;;;;;;;0.10;0.10;;;20.40;99.90;;;;;;5005615;28;20462;-75
2022/07/04 05:25:32;;;;;;;0.10;0.10;;;20.40;99.90;;;;;;4993671;28;20049;-74
2022/07/04 05:27:58;;;;;;;0.10;0.10;;;20.40;99.90;;;;;;4990510;28;20378;-73
2022/07/04 05:30:24;;;;;;;0.10;0.10;;;20.50;99.90;;;;;;4977205;28;20026;-75
2022/07/04 05:32:50;;;;;;;0.00;0.00;;;20.40;99.90;;;;;;4978377;28;20032;-75
2022/07/04 05:35:16;;;;;;;0.10;0.10;;;20.40;99.90;;;;;;4992730;28;20038;-74
2022/07/04 05:37:43;;;;;;;0.03;0.03;;;20.30;99.90;;;;;;4993131;28;20030;-73
2022/07/04 05:40:10;;;;;;;0.00;0.00;;;20.30;99.90;;;;;;4994219;28;20029;-75
2022/07/04 05:42:36;;;;;;;0.10;0.10;;;20.40;99.90;;;;;;4993061;28;20049;-75
2022/07/04 05:45:02;;;;;;;0.00;0.00;;;20.50;99.90;;;;;;4976928;28;20076;-75
2022/07/04 05:47:28;;;;;;;0.03;0.03;;;20.30;99.90;;;;;;4976420;28;20458;-74
2022/07/04 05:49:54;;;;;;;0.10;0.10;;;20.40;99.90;;;;;;4992967;28;20981;-75
2022/07/04 05:52:19;;;;;;;0.17;0.17;;;20.40;99.90;;;;;;4992144;28;20121;-75
2022/07/04 05:54:45;;;;;;;0.10;0.10;;;20.20;99.90;;;;;;4993642;28;20126;-75
2022/07/04 05:57:11;;;;;;;0.10;0.10;;;20.20;99.90;;;;;;4994807;28;20441;-75
2022/07/04 05:59:37;;;;;;;0.38;0.38;;;20.10;99.90;;;;;;4992780;28;20401;-75
2022/07/04 06:02:03;;;;;;;0.17;0.17;;;20.20;99.90;;;;;;4991746;28;20451;-74
2022/07/04 06:04:29;;;;;;;0.38;0.38;;;20.30;99.90;;;;;;4976147;28;20081;-75
2022/07/04 06:06:55;;;;;;;0.20;0.20;;;20.40;99.90;;;;;;4992448;28;20041;-76
2022/07/04 06:09:20;;;;;;;0.10;0.10;;;20.20;99.90;;;;;;4990845;28;20030;-75
2022/07/04 06:11:46;;;;;;;0.20;0.20;;;20.20;99.90;;;;;;4991991;28;20017;-75
2022/07/04 06:14:12;;;;;;;0.00;0.00;;;20.40;99.90;;;;;;4993188;28;20112;-75
2022/07/04 06:16:38;;;;;;;0.10;0.10;;;20.40;99.90;;;;;;4991053;28;20022;-74
2022/07/04 06:19:04;;;;;;;0.20;0.20;;;20.50;99.90;;;;;;4991679;28;20027;-75
2022/07/04 06:21:29;;;;;;;0.10;0.10;;;20.60;99.90;;;;;;4992736;28;20485;-75
2022/07/04 06:23:57;;;;;;;0.35;0.32;;;20.70;99.90;;;;;;4991585;28;20035;-75
2022/07/04 06:26:23;;;;;;;0.00;0.00;;;20.70;99.90;;;;;;4994003;28;20101;-75
2022/07/04 06:28:49;;;;;;;0.10;0.10;;;20.80;99.90;;;;;;4993910;28;20026;-75
2022/07/04 06:31:15;;;;;;;0.52;0.52;;;20.90;99.90;;;;;;4992591;28;20046;-75
2022/07/04 06:36:25;;;;;;;0.20;0.20;;;21.10;99.90;;;;;;4993368;28;20029;-75
2022/07/04 06:38:51;;;;;;;0.10;0.10;;;21.20;99.90;;;;;;4991132;28;20148;-73
2022/07/04 06:41:17;;;;;;;0.10;0.10;;;21.10;99.90;;;;;;4991204;28;20575;-72
2022/07/04 06:43:43;;;;;;;1.15;0.40;;;21.20;99.90;;;;;;4991821;28;20506;-75
2022/07/04 06:46:09;;;;;;;0.10;0.10;;;21.10;99.90;;;;;;4991839;28;20448;-74
2022/07/04 06:48:36;;;;;;;2.05;1.00;;;21.10;99.90;;;;;;4989846;28;20038;-74
2022/07/04 06:51:02;;;;;;;0.10;0.10;;;21.10;99.90;;;;;;4992178;28;20041;-74
2022/07/04 06:53:28;;;;;;;0.38;0.38;;;21.20;99.90;;;;;;4991013;28;20797;-75
2022/07/04 06:55:54;;;;;;;1.20;0.75;;;21.20;99.90;;;;;;4971770;28;20033;-73
2022/07/04 06:58:20;;;;;;;0.90;0.85;;;20.90;99.90;;;;;;4971749;28;20054;-74
2022/07/04 07:00:45;;;;;;;0.10;0.10;;;20.80;99.90;;;;;;4988695;28;20038;-74
2022/07/04 07:03:11;;;;;;;0.10;0.10;;;20.70;99.90;;;;;;4989004;28;20269;-74
2022/07/04 07:05:37;;;;;;;0.20;0.20;;;20.90;99.90;;;;;;4988784;28;20088;-75
2022/07/04 07:08:04;;;;;;;0.20;0.20;;;20.80;99.90;;;;;;4973719;28;20032;-75
2022/07/04 07:10:32;;;;;;;0.70;0.47;;;20.80;99.90;;;;;;4965902;28;20057;-73
2022/07/04 07:12:59;;;;;;;0.25;0.25;;;20.80;99.90;;;;;;4971156;28;20031;-74
2022/07/04 07:15:24;;;;;;;0.13;0.10;;;20.80;99.90;;;;;;4986399;28;20097;-75
2022/07/04 07:17:50;;;;;;;0.10;0.10;;;20.80;99.90;;;;;;4983928;28;20038;-74
2022/07/04 07:20:16;;;;;;;0.20;0.20;;;20.60;99.90;;;;;;4989747;28;20065;-74
2022/07/04 07:22:42;;;;;;;0.10;0.10;;;20.70;99.90;;;;;;4990699;28;20026;-75
2022/07/04 07:25:09;;;;;;;0.10;0.10;;;20.70;99.90;;;;;;4975708;28;20037;-74
2022/07/04 07:27:35;;;;;;;0.13;0.13;;;20.70;99.90;;;;;;4995233;28;20034;-75
2022/07/04 07:30:02;;;;;;;0.00;0.00;;;20.60;99.90;;;;;;4996378;28;20116;-75
2022/07/04 07:32:28;;;;;;;1.75;1.65;;;20.70;99.90;;;;;;4992839;28;20034;-75
2022/07/04 07:34:53;;;;;;;0.30;0.30;;;20.70;99.90;;;;;;4983218;28;20045;-74
2022/07/04 07:37:21;;;;;;;0.17;0.17;;;20.60;99.90;;;;;;4997806;28;20065;-74
2022/07/04 07:39:48;;;;;;;2.13;0.55;;;20.50;99.90;;;;;;4976189;28;20045;-73
2022/07/04 07:42:14;;;;;;;0.10;0.10;;;20.20;99.90;;;;;;4990347;28;21400;-75
2022/07/04 07:44:40;;;;;;;0.30;0.30;;;20.10;99.90;;;;;;4991903;28;21057;-75
2022/07/04 07:47:06;;;;;;;3.05;0.93;;;20.10;99.90;;;;;;4985487;28;20057;-75
2022/07/04 07:49:31;;;;;;;0.10;0.10;;;20.00;99.90;;;;;;4971670;28;20030;-75
2022/07/04 07:51:57;;;;;;;0.05;0.05;;;20.20;99.90;;;;;;4984266;28;20019;-75
2022/07/04 07:54:23;;;;;;;0.10;0.10;;;20.30;99.90;;;;;;4988225;28;20440;-75
2022/07/04 07:56:49;;;;;;;2.00;0.65;;;20.50;99.90;;;;;;4982526;28;20030;-74
2022/07/04 07:59:15;;;;;;;0.43;0.32;;;20.60;99.90;;;;;;4994907;28;20053;-74
2022/07/04 08:01:40;;;;;;;0.00;0.00;;;20.60;99.90;;;;;;4992182;28;20038;-74
2022/07/04 08:06:51;;;;;;;0.08;0.08;;;20.80;99.90;;;;;;4987347;28;20034;-74
2022/07/04 08:09:16;;;;;;;0.10;0.10;;;20.90;99.90;;;;;;4992289;28;20093;-75
2022/07/04 08:11:42;;;;;;;0.10;0.10;;;20.90;99.90;;;;;;4986766;28;20062;-73
2022/07/04 08:14:08;;;;;;;0.10;0.10;;;20.80;99.90;;;;;;4989773;28;20026;-74
2022/07/04 08:16:34;;;;;;;0.00;0.00;;;20.80;99.90;;;;;;4990250;28;20034;-75
2022/07/04 08:19:01;;;;;;;0.10;0.10;;;20.80;99.90;;;;;;4992564;28;20033;-75
2022/07/04 08:21:27;;;;;;;0.38;0.38;;;20.80;99.90;;;;;;4983270;28;20041;-75
2022/07/04 08:23:53;;;;;;;0.35;0.35;;;20.70;99.90;;;;;;4991145;28;20408;-75
2022/07/04 08:26:19;;;;;;;0.10;0.10;;;20.30;99.90;;;;;;4981613;28;20477;-73
2022/07/04 08:28:45;;;;;;;0.10;0.10;;;20.30;99.90;;;;;;4992219;28;20679;-75
2022/07/04 08:31:11;;;;;;;0.10;0.10;;;20.60;99.90;;;;;;4989633;28;21636;-74
2022/07/04 08:33:37;;;;;;;0.15;0.15;;;20.70;99.90;;;;;;4993907;28;20029;-73
2022/07/04 08:36:03;;;;;;;0.00;0.00;;;20.60;99.90;;;;;;4984742;28;20035;-74
2022/07/04 08:38:30;;;;;;;0.10;0.10;;;20.80;99.90;;;;;;4985628;28;20113;-75
2022/07/04 08:41:02;;;;;;;0.00;0.00;;;20.90;99.90;;;;;;4987732;28;20117;-75
2022/07/04 08:43:33;;;;;;;0.10;0.10;;;21.00;99.90;;;;;;4995971;28;20073;-76
2022/07/04 08:45:59;;;;;;;0.00;0.00;;;21.00;99.90;;;;;;4991922;28;20064;-74
2022/07/04 08:48:26;;;;;;;0.10;0.10;;;21.20;99.90;;;;;;4999192;28;20116;-75
2022/07/04 08:50:59;;;;;;;0.00;0.00;;;21.30;99.90;;;;;;4989216;28;20030;-73
2022/07/04 08:53:30;;;;;;;0.10;0.10;;;21.30;99.90;;;;;;5001513;28;20607;-73
2022/07/04 08:58:42;;;;;;;0.30;0.30;;;21.30;99.90;;;;;;4995770;28;20046;-73
2022/07/04 09:01:16;;;;;;;0.10;0.10;;;21.40;99.90;;;;;;4997223;28;20068;-75
2022/07/04 09:03:44;;;;;;;0.00;0.00;;;21.40;99.90;;;;;;4992144;28;20037;-77
2022/07/04 09:06:11;;;;;;;0.00;0.00;;;21.60;99.90;;;;;;4999549;28;20037;-75
2022/07/04 09:08:38;;;;;;;0.00;0.00;;;21.70;99.90;;;;;;4999754;28;20034;-75
2022/07/04 09:11:05;;;;;;;0.00;0.00;;;21.80;99.90;;;;;;5001082;28;20498;-74
2022/07/04 09:13:32;;;;;;;0.10;0.10;;;21.90;99.90;;;;;;4997121;28;20572;-75
2022/07/04 09:15:58;;;;;;;0.08;0.08;;;21.90;99.90;;;;;;4994673;28;20061;-75
2022/07/04 09:18:29;;;;;;;0.00;0.00;;;22.00;99.90;;;;;;4991017;28;20034;-75
2022/07/04 09:20:57;;;;;;;0.30;0.30;;;22.20;99.90;;;;;;4982747;28;20148;-75
2022/07/04 09:23:25;;;;;;;0.10;0.10;;;22.30;99.90;;;;;;4977744;28;20099;-74
2022/07/04 09:26:11;;;;;;;0.10;0.10;;;22.30;99.90;;;;;;4982522;28;20138;-75
2022/07/04 09:28:39;;;;;;;0.00;0.00;;;22.60;99.90;;;;;;4999882;28;20030;-76
2022/07/04 09:31:20;;;;;;;0.00;0.00;;;23.00;99.90;;;;;;5000934;28;20081;-73
2022/07/04 09:33:46;;;;;;;0.30;0.30;;;23.30;99.90;;;;;;4989310;28;20026;-76
2022/07/04 09:36:18;;;;;;;0.00;0.00;;;23.60;99.90;;;;;;4980918;28;20097;-76
2022/07/04 09:38:44;;;;;;;;;;;23.50;99.90;;;;;;5000200;28;20122;-76
2022/07/04 09:41:25;;;;;;;0.00;0.00;;;23.40;99.90;;;;;;4982735;28;20060;-75
2022/07/04 09:44:04;;;;;;;0.10;0.10;;;23.60;99.90;;;;;;4984934;28;20393;-75
2022/07/04 09:46:30;;;;;;;0.00;0.00;;;23.80;99.90;;;;;;5055470;23;20054;-72
2022/07/04 09:48:56;;;;;;;0.20;0.20;;;24.00;99.90;;;;;;4979055;28;20371;-72
2022/07/04 09:51:38;;;;;;;0.00;0.00;;;24.20;99.90;;;;;;4984664;28;20033;-72
2022/07/04 09:54:19;;;;;;;0.00;0.00;;;24.10;99.90;;;;;;4980524;28;20085;-74
2022/07/04 09:56:56;;;;;;;0.30;0.30;;;23.90;99.90;;;;;;4979041;28;20113;-74
2022/07/04 09:59:23;;;;;;;0.10;0.10;;;23.60;99.90;;;;;;4981413;28;20497;-74
2022/07/04 10:01:49;;;;;;;0.00;0.00;;;23.60;99.90;;;;;;4982139;28;20584;-74
2022/07/04 10:04:15;;;;;;;0.00;0.00;;;23.60;99.90;;;;;;4979291;28;20026;-72
2022/07/04 10:06:43;;;;;;;0.00;0.00;;;23.30;99.90;;;;;;4980447;28;20129;-72
2022/07/04 10:09:15;;;;;;;0.30;0.30;;;23.20;99.90;;;;;;4981475;28;20027;-72
2022/07/04 10:11:43;;;;;;;0.52;0.30;;;23.30;99.90;;;;;;4978189;28;20051;-72
2022/07/04 10:14:11;;;;;;;0.00;0.00;;;23.30;99.90;;;;;;4987466;28;20386;-72
2022/07/04 10:16:38;;;;;;;0.10;0.10;;;23.50;99.90;;;;;;4980041;28;20027;-72
2022/07/04 10:19:05;;;;;;;0.10;0.10;;;23.50;99.90;;;;;;4976444;28;20042;-73
2022/07/04 10:21:31;;;;;;;0.05;0.05;;;23.50;99.90;;;;;;4980421;28;20046;-74
2022/07/04 10:23:57;;;;;;;0.00;0.00;;;23.40;99.90;;;;;;4976682;28;20045;-73
2022/07/04 10:26:23;;;;;;;0.40;0.40;;;23.30;99.90;;;;;;4978940;28;20490;-72
2022/07/04 10:28:52;;;;;;;0.00;0.00;;;23.20;99.90;;;;;;4984449;28;20030;-72
2022/07/04 10:31:23;;;;;;;9.00;0.73;;;23.40;99.90;;;;;;4974581;28;20063;-73
2022/07/04 10:33:49;;;;;;;0.10;0.10;;;23.40;99.90;;;;;;4984130;28;20110;-72
2022/07/04 10:36:27;;;;;;;0.10;0.10;;;23.50;99.90;;;;;;4981916;28;20042;-72
2022/07/04 10:39:01;;;;;;;0.00;0.00;;;23.70;99.90;;;;;;4974548;28;20105;-72
2022/07/04 10:41:29;;;;;;;0.10;0.10;;;23.80;99.90;;;;;;4974608;28;20030;-72
2022/07/04 10:44:06;;;;;;;0.20;0.20;;;23.70;99.90;;;;;;4981598;28;20410;-72
2022/07/04 10:46:34;;;;;;;0.05;0.05;;;23.70;99.90;;;;;;4973939;28;20501;-72
2022/07/04 10:49:22;;;;;;;0.00;0.00;;;23.80;99.90;;;;;;4979847;28;20544;-72
2022/07/04 10:51:50;;;;;;;0.10;0.10;;;23.90;99.90;;;;;;4984757;28;20033;-72
2022/07/04 10:54:22;;;;;;;0.03;0.03;;;23.90;99.90;;;;;;4977548;28;20457;-72
2022/07/04 10:56:56;;;;;;;0.00;0.00;;;23.90;99.90;;;;;;4976915;28;20031;-72
2022/07/04 10:59:26;;;;;;;0.00;0.00;;;23.90;99.90;;;;;;4982611;28;20065;-72
2022/07/04 11:02:04;;;;;;;0.17;0.17;;;24.00;99.90;;;;;;4980063;28;20109;-72
2022/07/04 11:04:57;;;;;;;0.15;0.08;;;24.10;99.90;;;;;;4976927;28;20470;-72
2022/07/04 11:07:43;;;;;;;0.00;0.00;;;24.30;99.90;;;;;;4972502;28;20050;-72
2022/07/04 11:12:59;;;;;;;0.13;0.13;;;24.60;99.90;;;;;;4975696;28;20035;-72
2022/07/04 11:15:24;;;;;;;0.08;0.08;;;24.80;99.90;;;;;;4976479;28;20141;-73
2022/07/04 11:17:54;;;;;;;0.00;0.00;;;24.80;99.90;;;;;;4978789;28;20202;-73
2022/07/04 11:20:21;;;;;;;0.00;0.00;;;24.90;99.90;;;;;;4964781;28;20453;-73
2022/07/04 11:22:47;;;;;;;0.00;0.00;;;25.20;99.90;;;;;;4979236;28;20105;-73
2022/07/04 11:25:13;;;;;;;0.00;0.00;;;25.30;99.90;;;;;;4974190;28;20114;-73
2022/07/04 11:27:40;;;;;;;0.00;0.00;;;25.30;99.60;;;;;;4975266;28;20037;-72
2022/07/04 11:30:07;;;;;;;0.00;0.00;;;25.50;98.40;;;;;;4976497;28;20037;-73
2022/07/04 11:32:34;;;;;;;1.00;0.50;;;25.80;98.20;;;;;;4982322;28;20037;-73
2022/07/04 11:35:00;;;;;;;0.00;0.00;;;26.00;96.40;;;;;;4983079;28;20035;-72
2022/07/04 11:37:26;;;;;;;0.00;0.00;;;26.20;96.30;;;;;;4978850;28;20144;-72
2022/07/04 11:45:02;;;;;;;0.10;0.10;;;26.20;94.30;;;;;;4973479;28;20058;-72
2022/07/04 11:45:48;;;;;;;6.40;0.73;;;27.10;91.30;;;;;;4973371;28;20033;-72
2022/07/04 11:48:25;;;;;;;0.20;0.20;;;27.10;85.10;;;;;;4972097;28;20035;-72
2022/07/04 11:50:51;;;;;;;0.00;0.00;;;27.40;85.00;;;;;;4972101;28;20147;-72
2022/07/04 11:53:17;;;;;;;0.00;0.00;;;27.50;79.50;;;;;;4973157;28;20102;-72
2022/07/04 11:56:01;;;;;;;0.40;0.10;;;27.30;78.50;;;;;;4971972;28;20031;-73
2022/07/04 11:58:46;;;;;;;0.00;0.00;;;27.00;77.40;;;;;;4972984;28;20022;-72
2022/07/04 12:01:12;;;;;;;0.00;0.00;;;26.90;78.90;;;;;;4971101;28;20045;-72
2022/07/04 12:03:38;;;;;;;0.10;0.10;;;27.20;77.90;;;;;;4973146;28;20031;-72
2022/07/04 12:06:05;;;;;;;0.10;0.10;;;27.30;76.50;;;;;;4973122;28;20026;-72
2022/07/04 12:08:32;;;;;;;0.05;0.05;;;27.50;76.30;;;;;;4971951;28;20097;-72
2022/07/04 12:10:57;;;;;;;0.10;0.10;;;27.40;74.60;;;;;;4972869;28;20023;-72
2022/07/04 12:13:24;;;;;;;0.15;0.15;;;27.20;76.40;;;;;;4973216;28;20033;-72
2022/07/04 12:15:56;;;;;;;0.00;0.00;;;27.20;77.30;;;;;;4972991;28;20360;-72
2022/07/04 12:18:24;;;;;;;0.00;0.00;;;27.10;77.00;;;;;;4972937;28;20018;-71
2022/07/04 12:20:52;;;;;;;0.98;0.57;;;27.40;75.90;;;;;;4972933;28;20034;-73
2022/07/04 12:23:20;;;;;;;0.00;0.00;;;27.20;72.40;;;;;;4973064;28;20098;-72
2022/07/04 12:25:51;;;;;;;2.85;0.68;;;26.70;74.00;;;;;;4973021;28;20084;-72
2022/07/04 12:28:18;;;;;;;2.55;1.27;;;26.60;73.30;;;;;;4971932;28;20530;-72
2022/07/04 12:30:57;;;;;;;0.30;0.30;;;26.70;73.70;;;;;;4972854;28;20031;-72
2022/07/04 12:33:25;;;;;;;0.00;0.00;;;26.60;74.40;;;;;;4972966;28;20058;-72
2022/07/04 12:35:56;;;;;;;0.20;0.20;;;26.70;76.10;;;;;;4971756;28;20049;-72
2022/07/04 12:38:34;;;;;;;0.10;0.10;;;27.00;74.00;;;;;;4972943;28;20479;-73
2022/07/04 12:41:05;;;;;;;0.10;0.10;;;26.90;74.70;;;;;;4972907;28;20037;-72
2022/07/04 12:43:43;;;;;;;0.20;0.20;;;26.90;75.00;;;;;;4955528;28;20114;-72
2022/07/04 12:46:10;;;;;;;0.75;0.65;;;26.80;74.80;;;;;;4981255;28;20037;-72
2022/07/04 12:48:37;;;;;;;0.00;0.00;;;27.00;74.70;;;;;;4992323;28;20034;-72
2022/07/04 12:51:23;;;;;;;0.00;0.00;;;27.10;74.30;;;;;;4992196;28;20108;-72
2022/07/04 12:53:52;;;;;;;0.00;0.00;;;27.30;73.00;;;;;;4992200;28;20030;-72
2022/07/04 12:56:38;;;;;;;0.52;0.50;;;27.40;72.90;;;;;;4992291;28;20674;-72
2022/07/04 12:59:13;;;;;;;0.00;0.00;;;27.00;71.60;;;;;;4990946;28;20023;-72
2022/07/04 13:01:41;;;;;;;0.00;0.00;;;27.10;73.80;;;;;;4992055;28;20109;-72
2022/07/04 13:04:07;;;;;;;0.00;0.00;;;27.10;72.80;;;;;;4992083;28;20121;-72
2022/07/04 13:06:34;;;;;;;0.00;0.00;;;27.00;73.50;;;;;;4992044;28;20034;-72
2022/07/04 13:09:02;;;;;;;0.00;0.00;;;26.80;73.30;;;;;;4991953;28;20034;-72
2022/07/04 13:14:12;;;;;;;0.00;0.00;;;26.60;73.90;;;;;;4995373;28;20042;-72
2022/07/04 13:16:38;;;;;;;0.00;0.00;;;26.30;75.00;;;;;;4995494;28;20034;-72